Calgary, Canada
Current Conditions -  °F | °C
As of 1:00 PM on Sunday 25 Jan 2015 (Local Time) from CYYC Reporting Station
Scattered Clouds Scattered Clouds  
Wind Chill: 57°   Ceiling: Unl
Heat Index: 57°   Visibility: 40mi
Dew Point: 34°   Wind: 8mph
Humidity: 41%   Direction: 190°S
Pressure: 29.79"   Gusts: NA
Location:  51.05°N, 114.06°W
Report Text: CYYC 252000Z 19007KT 40SM FEW060 FEW160 SCT220 14/01 A2979 RMK SC1AC1CI3 SC TR SLP110 DENSITY ALT 4500FT
Loading
Personal Weather Stations






























Interactive Weather Map New forecast layout! Learn more

10-Day Weather Forecast

Advertisements
Track Severe Weather on mobile